createdAt,value
2023-04-08T00:00:13.388Z,1004.67
2023-04-08T00:01:13.268Z,1004.67
2023-04-08T00:02:13.163Z,1004.67
2023-04-08T00:03:13.268Z,1004.65
2023-04-08T00:04:13.440Z,1004.71
2023-04-08T00:05:13.506Z,1004.68
2023-04-08T00:06:13.405Z,1004.71
2023-04-08T00:07:13.316Z,1004.70
2023-04-08T00:08:13.398Z,1004.68
2023-04-08T00:09:14.003Z,1004.68
2023-04-08T00:10:13.083Z,1004.73
2023-04-08T00:11:12.999Z,1004.74
2023-04-08T00:12:13.268Z,1004.73
2023-04-08T00:13:13.082Z,1004.76
2023-04-08T00:14:12.969Z,1004.78
2023-04-08T00:15:13.069Z,1004.82
2023-04-08T00:16:13.094Z,1004.81
2023-04-08T00:17:13.415Z,1004.79
2023-04-08T00:18:13.413Z,1004.72
2023-04-08T00:19:13.537Z,1004.81
2023-04-08T00:20:13.515Z,1004.80
2023-04-08T00:21:13.415Z,1004.75
2023-04-08T00:22:13.544Z,1004.77
2023-04-08T00:23:13.746Z,1004.79
2023-04-08T00:24:13.904Z,1004.80
2023-04-08T00:25:12.889Z,1004.84
2023-04-08T00:26:13.072Z,1004.85
2023-04-08T00:27:13.325Z,1004.85
2023-04-08T00:28:13.292Z,1004.87
2023-04-08T00:29:13.301Z,1004.88
2023-04-08T00:30:13.436Z,1004.95
2023-04-08T00:31:13.532Z,1004.96
2023-04-08T00:32:13.792Z,1004.99
2023-04-08T00:33:14.302Z,1004.91
2023-04-08T00:34:13.543Z,1004.92
2023-04-08T00:35:13.793Z,1004.89
2023-04-08T00:36:19.373Z,1004.91
2023-04-08T00:37:13.419Z,1004.89
2023-04-08T00:38:13.708Z,1004.88
2023-04-08T00:39:13.720Z,1004.85
2023-04-08T00:40:13.941Z,1004.88
2023-04-08T00:41:13.248Z,1004.86
2023-04-08T00:42:13.290Z,1004.88
2023-04-08T00:43:13.427Z,1004.86
2023-04-08T00:44:13.359Z,1004.85
2023-04-08T00:45:13.784Z,1004.84
2023-04-08T00:46:13.848Z,1004.85
2023-04-08T00:47:13.984Z,1004.81
2023-04-08T00:48:13.121Z,1004.83
2023-04-08T00:49:13.033Z,1004.84
2023-04-08T00:50:12.880Z,1004.87
2023-04-08T00:51:12.965Z,1004.89
2023-04-08T00:52:13.302Z,1004.90
2023-04-08T00:53:13.353Z,1004.90
2023-04-08T00:54:18.260Z,1004.95
2023-04-08T00:55:13.116Z,1004.99
2023-04-08T00:56:13.080Z,1004.92
2023-04-08T00:57:13.029Z,1004.89
2023-04-08T00:58:13.048Z,1004.92
2023-04-08T00:59:13.198Z,1004.88
2023-04-08T01:00:13.041Z,1004.88
2023-04-08T01:01:14.167Z,1004.91
2023-04-08T01:02:13.404Z,1004.93
2023-04-08T01:03:14.055Z,1004.91
2023-04-08T01:04:13.305Z,1004.94
2023-04-08T01:05:13.791Z,1004.95
2023-04-08T01:06:14.108Z,1004.94
2023-04-08T01:07:13.493Z,1004.97
2023-04-08T01:08:14.068Z,1004.94
2023-04-08T01:09:13.390Z,1005.00
2023-04-08T01:10:13.499Z,1004.98
2023-04-08T01:11:13.527Z,1004.98
2023-04-08T01:12:13.644Z,1005.01
2023-04-08T01:13:13.609Z,1005.02
2023-04-08T01:14:13.575Z,1004.99
2023-04-08T01:15:13.685Z,1005.02
2023-04-08T01:16:57.451Z,1005.01
2023-04-08T01:17:18.627Z,1005.00
2023-04-08T01:18:18.918Z,1005.02
2023-04-08T01:19:12.911Z,1005.01
2023-04-08T01:20:12.819Z,1004.99
2023-04-08T01:21:13.900Z,1004.96
2023-04-08T01:22:12.753Z,1004.98
2023-04-08T01:23:13.646Z,1004.99
2023-04-08T01:24:14.040Z,1005.00
2023-04-08T01:25:12.968Z,1004.99
2023-04-08T01:26:12.776Z,1005.02
2023-04-08T01:27:13.758Z,1005.04
2023-04-08T01:28:13.639Z,1005.04
2023-04-08T01:29:13.670Z,1005.04
2023-04-08T01:30:13.952Z,1005.07
2023-04-08T01:31:13.103Z,1005.05
2023-04-08T01:32:12.982Z,1005.02
2023-04-08T01:33:13.002Z,1005.04
2023-04-08T01:34:12.916Z,1005.05
2023-04-08T01:35:13.256Z,1005.05
2023-04-08T01:36:13.211Z,1005.02
2023-04-08T01:37:13.120Z,1005.04
2023-04-08T01:38:13.028Z,1005.04
2023-04-08T01:39:12.842Z,1005.05
2023-04-08T01:40:13.947Z,1005.05
2023-04-08T01:41:12.805Z,1005.04
2023-04-08T01:42:13.710Z,1005.05
2023-04-08T01:43:13.940Z,1005.04
2023-04-08T01:44:12.986Z,1005.06
2023-04-08T01:45:13.212Z,1005.06
2023-04-08T01:46:13.152Z,1004.99
2023-04-08T01:47:13.176Z,1004.98
2023-04-08T01:48:13.696Z,1004.99
2023-04-08T01:49:13.717Z,1005.04
2023-04-08T01:50:13.825Z,1005.03
2023-04-08T01:51:13.953Z,1004.98
2023-04-08T01:52:13.019Z,1004.99
2023-04-08T01:53:13.023Z,1005.00
2023-04-08T01:54:12.963Z,1005.01
2023-04-08T01:55:12.815Z,1005.01
2023-04-08T01:56:13.635Z,1005.02
2023-04-08T01:57:13.516Z,1004.98
2023-04-08T01:58:13.492Z,1004.99
2023-04-08T01:59:13.445Z,1004.93
2023-04-08T02:00:13.594Z,1004.97
2023-04-08T02:01:13.396Z,1004.94
2023-04-08T02:02:13.348Z,1004.94
2023-04-08T02:03:13.775Z,1004.96
2023-04-08T02:04:13.084Z,1004.94
2023-04-08T02:05:13.233Z,1005.01
2023-04-08T02:06:13.431Z,1005.01
2023-04-08T02:07:13.508Z,1005.05
2023-04-08T02:08:13.361Z,1005.03
2023-04-08T02:09:13.362Z,1004.98
2023-04-08T02:10:13.472Z,1004.96
2023-04-08T02:11:13.394Z,1004.97
2023-04-08T02:12:13.386Z,1005.01
2023-04-08T02:13:13.401Z,1005.01
2023-04-08T02:14:13.338Z,1005.01
2023-04-08T02:15:13.535Z,1005.00
2023-04-08T02:16:13.837Z,1004.99
2023-04-08T02:17:13.746Z,1005.00
2023-04-08T02:18:14.039Z,1005.03
2023-04-08T02:19:13.258Z,1005.05
2023-04-08T02:20:13.506Z,1005.05
2023-04-08T02:21:13.708Z,1005.11
2023-04-08T02:22:14.141Z,1005.10
2023-04-08T02:23:13.492Z,1005.11
2023-04-08T02:24:13.477Z,1005.08
2023-04-08T02:25:13.453Z,1005.11
2023-04-08T02:26:13.417Z,1005.12
2023-04-08T02:27:13.368Z,1005.13
2023-04-08T02:28:13.405Z,1005.18
2023-04-08T02:29:13.405Z,1005.19
2023-04-08T02:30:13.372Z,1005.19
2023-04-08T02:31:13.906Z,1005.22
2023-04-08T02:32:13.113Z,1005.22
2023-04-08T02:33:12.997Z,1005.24
2023-04-08T02:34:13.068Z,1005.23
2023-04-08T02:35:12.941Z,1005.20
2023-04-08T02:36:12.920Z,1005.23
2023-04-08T02:37:12.814Z,1005.18
2023-04-08T02:38:13.801Z,1005.22
2023-04-08T02:39:13.663Z,1005.21
2023-04-08T02:40:13.578Z,1005.24
2023-04-08T02:41:13.417Z,1005.22
2023-04-08T02:42:13.394Z,1005.18
2023-04-08T02:43:13.295Z,1005.20
2023-04-08T02:44:13.311Z,1005.17
2023-04-08T02:45:13.416Z,1005.14
2023-04-08T02:46:13.510Z,1005.16
2023-04-08T02:47:13.439Z,1005.15
2023-04-08T02:48:13.475Z,1005.17
2023-04-08T02:49:13.431Z,1005.18
2023-04-08T02:50:13.345Z,1005.17
2023-04-08T02:51:13.387Z,1005.19
2023-04-08T02:52:13.285Z,1005.17
2023-04-08T02:53:13.462Z,1005.18
2023-04-08T02:54:13.328Z,1005.16
2023-04-08T02:55:13.191Z,1005.19
2023-04-08T02:56:13.168Z,1005.17
2023-04-08T02:57:13.125Z,1005.19
2023-04-08T02:58:13.051Z,1005.20
2023-04-08T02:59:13.047Z,1005.20
2023-04-08T03:00:13.162Z,1005.20
2023-04-08T03:01:13.276Z,1005.20
2023-04-08T03:02:13.382Z,1005.20
2023-04-08T03:03:13.797Z,1005.24
2023-04-08T03:04:13.792Z,1005.26
2023-04-08T03:05:13.661Z,1005.27
2023-04-08T03:06:13.682Z,1005.29
2023-04-08T03:07:13.600Z,1005.31
2023-04-08T03:08:13.385Z,1005.32
2023-04-08T03:09:13.641Z,1005.32
2023-04-08T03:10:13.918Z,1005.33
2023-04-08T03:11:13.270Z,1005.32
2023-04-08T03:12:14.024Z,1005.35
2023-04-08T03:13:13.255Z,1005.34
2023-04-08T03:14:13.627Z,1005.35
2023-04-08T03:15:13.589Z,1005.33
2023-04-08T03:16:13.439Z,1005.34
2023-04-08T03:17:15.250Z,1005.30
2023-04-08T03:18:13.120Z,1005.27
2023-04-08T03:19:17.998Z,1005.30
2023-04-08T03:20:12.886Z,1005.26
2023-04-08T03:21:14.010Z,1005.21
2023-04-08T03:22:13.128Z,1005.24
2023-04-08T03:23:13.019Z,1005.17
2023-04-08T03:24:12.819Z,1005.19
2023-04-08T03:25:13.804Z,1005.21
2023-04-08T03:26:13.712Z,1005.22
2023-04-08T03:27:13.651Z,1005.31
2023-04-08T03:28:13.617Z,1005.32
2023-04-08T03:29:13.726Z,1005.29
2023-04-08T03:30:13.732Z,1005.33
2023-04-08T03:31:12.741Z,1005.35
2023-04-08T03:32:13.611Z,1005.38
2023-04-08T03:33:13.555Z,1005.40
2023-04-08T03:34:13.598Z,1005.40
2023-04-08T03:35:13.638Z,1005.42
2023-04-08T03:36:13.589Z,1005.36
2023-04-08T03:37:13.576Z,1005.35
2023-04-08T03:38:13.524Z,1005.37
2023-04-08T03:39:13.566Z,1005.35
2023-04-08T03:40:14.725Z,1005.36
2023-04-08T03:41:13.711Z,1005.35
2023-04-08T03:42:13.531Z,1005.36
2023-04-08T03:43:13.495Z,1005.31
2023-04-08T03:44:13.657Z,1005.32
2023-04-08T03:45:13.694Z,1005.32
2023-04-08T03:46:13.676Z,1005.37
2023-04-08T03:47:13.553Z,1005.37
2023-04-08T03:48:13.411Z,1005.37
2023-04-08T03:49:13.657Z,1005.37
2023-04-08T03:50:13.696Z,1005.38
2023-04-08T03:51:13.681Z,1005.36
2023-04-08T03:52:14.012Z,1005.41
2023-04-08T03:53:12.983Z,1005.40
2023-04-08T03:54:12.893Z,1005.39
2023-04-08T03:55:13.061Z,1005.38
2023-04-08T03:56:12.918Z,1005.40
2023-04-08T03:57:12.818Z,1005.41
2023-04-08T03:58:13.924Z,1005.42
2023-04-08T03:59:13.200Z,1005.45
2023-04-08T04:00:13.269Z,1005.47
2023-04-08T04:01:13.235Z,1005.50
2023-04-08T04:02:13.239Z,1005.47
2023-04-08T04:03:13.401Z,1005.46
2023-04-08T04:04:13.878Z,1005.47
2023-04-08T04:05:13.136Z,1005.39
2023-04-08T04:06:12.999Z,1005.36
2023-04-08T04:07:13.149Z,1005.32
2023-04-08T04:08:14.216Z,1005.37
2023-04-08T04:09:13.130Z,1005.34
2023-04-08T04:10:13.185Z,1005.33
2023-04-08T04:11:13.039Z,1005.38
2023-04-08T04:12:12.877Z,1005.35
2023-04-08T04:13:13.792Z,1005.40
2023-04-08T04:14:14.050Z,1005.42
2023-04-08T04:15:13.047Z,1005.37
2023-04-08T04:16:13.255Z,1005.38
2023-04-08T04:17:13.430Z,1005.45
2023-04-08T04:18:13.766Z,1005.44
2023-04-08T04:19:14.028Z,1005.44
2023-04-08T04:20:12.864Z,1005.42
2023-04-08T04:21:13.060Z,1005.45
2023-04-08T04:22:13.159Z,1005.43
2023-04-08T04:23:14.215Z,1005.45
2023-04-08T04:24:13.545Z,1005.48
2023-04-08T04:25:13.657Z,1005.47
2023-04-08T04:26:13.519Z,1005.48
2023-04-08T04:27:13.512Z,1005.47
2023-04-08T04:28:13.535Z,1005.48
2023-04-08T04:29:13.450Z,1005.49
2023-04-08T04:30:13.584Z,1005.49
2023-04-08T04:31:13.541Z,1005.50
2023-04-08T04:32:13.422Z,1005.51
2023-04-08T04:33:18.655Z,1005.53
2023-04-08T04:34:13.507Z,1005.55
2023-04-08T04:35:13.581Z,1005.53
2023-04-08T04:36:13.762Z,1005.58
2023-04-08T04:37:14.180Z,1005.56
2023-04-08T04:38:13.355Z,1005.55
2023-04-08T04:39:13.224Z,1005.53
2023-04-08T04:40:13.019Z,1005.54
2023-04-08T04:41:12.943Z,1005.54
2023-04-08T04:42:12.872Z,1005.53
2023-04-08T04:43:14.071Z,1005.62
2023-04-08T04:44:13.284Z,1005.59
2023-04-08T04:45:13.072Z,1005.59
2023-04-08T04:46:13.411Z,1005.66
2023-04-08T04:47:13.832Z,1005.60
2023-04-08T04:48:14.112Z,1005.67
2023-04-08T04:49:13.052Z,1005.68
2023-04-08T04:50:13.153Z,1005.68
2023-04-08T04:51:12.973Z,1005.72
2023-04-08T04:52:13.230Z,1005.73
2023-04-08T04:53:13.208Z,1005.71
2023-04-08T04:54:13.384Z,1005.70
2023-04-08T04:55:13.701Z,1005.73
2023-04-08T04:56:13.937Z,1005.76
2023-04-08T04:57:13.241Z,1005.70
2023-04-08T04:58:13.221Z,1005.70
2023-04-08T04:59:13.545Z,1005.66
2023-04-08T05:00:13.465Z,1005.70
2023-04-08T05:01:13.636Z,1005.68
2023-04-08T05:02:13.773Z,1005.63
2023-04-08T05:03:14.355Z,1005.67
2023-04-08T05:04:13.319Z,1005.66
2023-04-08T05:05:14.776Z,1005.68
2023-04-08T05:06:14.140Z,1005.74
2023-04-08T05:07:13.040Z,1005.72
2023-04-08T05:08:13.195Z,1005.75
2023-04-08T05:09:13.284Z,1005.73
2023-04-08T05:10:13.106Z,1005.75
2023-04-08T05:11:13.370Z,1005.72
2023-04-08T05:12:13.362Z,1005.75
2023-04-08T05:13:13.541Z,1005.76
2023-04-08T05:14:13.636Z,1005.78
2023-04-08T05:15:13.603Z,1005.81
2023-04-08T05:16:14.042Z,1005.77
2023-04-08T05:17:13.089Z,1005.80
2023-04-08T05:18:13.192Z,1005.76
2023-04-08T05:19:13.145Z,1005.76
2023-04-08T05:20:13.411Z,1005.78
2023-04-08T05:21:13.074Z,1005.78
2023-04-08T05:22:13.080Z,1005.71
2023-04-08T05:23:13.181Z,1005.75
2023-04-08T05:24:13.104Z,1005.74
2023-04-08T05:25:13.245Z,1005.75
2023-04-08T05:26:14.201Z,1005.73
2023-04-08T05:27:12.991Z,1005.77
2023-04-08T05:28:12.903Z,1005.81
2023-04-08T05:29:12.941Z,1005.79
2023-04-08T05:30:12.844Z,1005.85
2023-04-08T05:31:13.737Z,1005.87
2023-04-08T05:32:13.840Z,1005.87
2023-04-08T05:33:13.891Z,1005.88
2023-04-08T05:34:13.958Z,1005.89
2023-04-08T05:35:12.771Z,1005.91
2023-04-08T05:36:13.601Z,1005.93
2023-04-08T05:37:13.553Z,1005.88
2023-04-08T05:38:13.659Z,1005.95
2023-04-08T05:39:13.548Z,1005.96
2023-04-08T05:40:13.480Z,1005.97
2023-04-08T05:41:13.481Z,1006.02
2023-04-08T05:42:13.533Z,1006.02
2023-04-08T05:43:13.493Z,1006.04
2023-04-08T05:44:13.355Z,1006.12
2023-04-08T05:45:13.589Z,1006.14
2023-04-08T05:46:13.553Z,1006.16
2023-04-08T05:47:13.956Z,1006.18
2023-04-08T05:48:12.903Z,1006.17
2023-04-08T05:50:13.457Z,1006.16
2023-04-08T05:51:13.424Z,1006.19
2023-04-08T05:52:13.388Z,1006.19
2023-04-08T05:53:13.420Z,1006.22
2023-04-08T05:54:15.423Z,1006.21
2023-04-08T05:55:14.167Z,1006.22
2023-04-08T05:56:18.806Z,1006.20
2023-04-08T05:57:14.213Z,1006.20
2023-04-08T05:58:13.055Z,1006.22
2023-04-08T05:59:24.960Z,1006.18
2023-04-08T06:00:12.896Z,1006.19
2023-04-08T06:01:13.292Z,1006.23
2023-04-08T06:02:14.870Z,1006.16
2023-04-08T06:03:13.214Z,1006.19
2023-04-08T06:04:13.954Z,1006.14
2023-04-08T06:05:12.993Z,1006.19
2023-04-08T06:06:12.858Z,1006.19
2023-04-08T06:07:13.052Z,1006.23
2023-04-08T06:08:12.962Z,1006.25
2023-04-08T06:09:12.760Z,1006.26
2023-04-08T06:10:14.030Z,1006.26
2023-04-08T06:11:12.990Z,1006.28
2023-04-08T06:12:12.894Z,1006.33
2023-04-08T06:13:12.950Z,1006.34
2023-04-08T06:14:13.189Z,1006.34
2023-04-08T06:15:15.368Z,1006.37
2023-04-08T06:16:13.656Z,1006.34
2023-04-08T06:17:13.825Z,1006.32
2023-04-08T06:18:14.061Z,1006.34
2023-04-08T06:19:13.203Z,1006.32
2023-04-08T06:20:13.427Z,1006.37
2023-04-08T06:21:13.386Z,1006.40
2023-04-08T06:22:13.274Z,1006.41
2023-04-08T06:23:13.273Z,1006.41
2023-04-08T06:24:13.485Z,1006.46
2023-04-08T06:25:13.755Z,1006.48
2023-04-08T06:26:13.789Z,1006.48
2023-04-08T06:27:13.683Z,1006.49
2023-04-08T06:28:13.538Z,1006.49
2023-04-08T06:29:13.394Z,1006.54
2023-04-08T06:30:13.273Z,1006.59
2023-04-08T06:31:13.434Z,1006.52
2023-04-08T06:32:13.656Z,1006.58
2023-04-08T06:33:13.813Z,1006.58
2023-04-08T06:34:13.684Z,1006.58
2023-04-08T06:35:13.745Z,1006.63
2023-04-08T06:36:14.086Z,1006.61
2023-04-08T06:37:12.970Z,1006.59
2023-04-08T06:38:13.023Z,1006.66
2023-04-08T06:39:13.195Z,1006.67
2023-04-08T06:40:13.411Z,1006.68
2023-04-08T06:41:13.293Z,1006.67
2023-04-08T06:42:13.162Z,1006.67
2023-04-08T06:43:13.227Z,1006.64
2023-04-08T06:44:13.179Z,1006.69
2023-04-08T06:45:13.154Z,1006.70
2023-04-08T06:46:13.253Z,1006.68
2023-04-08T06:47:13.166Z,1006.69
2023-04-08T06:48:13.215Z,1006.69
2023-04-08T06:49:13.167Z,1006.70
2023-04-08T06:50:13.013Z,1006.73
2023-04-08T06:51:13.156Z,1006.71
2023-04-08T06:52:14.721Z,1006.74
2023-04-08T06:53:13.121Z,1006.78
2023-04-08T06:54:13.362Z,1006.76
2023-04-08T06:55:13.277Z,1006.78
2023-04-08T06:56:13.369Z,1006.81
2023-04-08T06:57:13.711Z,1006.83
2023-04-08T06:58:13.679Z,1006.84
2023-04-08T06:59:13.534Z,1006.86
2023-04-08T07:00:13.429Z,1006.87
2023-04-08T07:01:13.630Z,1006.85
2023-04-08T07:02:13.609Z,1006.86
2023-04-08T07:03:13.914Z,1006.85
2023-04-08T07:04:13.078Z,1006.86
2023-04-08T07:05:13.143Z,1006.82
2023-04-08T07:06:13.501Z,1006.85
2023-04-08T07:07:13.508Z,1006.83
2023-04-08T07:08:13.667Z,1006.81
2023-04-08T07:09:13.706Z,1006.86
2023-04-08T07:10:13.556Z,1006.87
2023-04-08T07:11:13.715Z,1006.88
2023-04-08T07:12:13.983Z,1006.89
2023-04-08T07:13:13.270Z,1006.89
2023-04-08T07:14:13.239Z,1006.87
2023-04-08T07:15:13.129Z,1006.88
2023-04-08T07:16:13.271Z,1006.91
2023-04-08T07:17:13.405Z,1006.94
2023-04-08T07:18:13.352Z,1006.93
2023-04-08T07:19:13.294Z,1006.91
2023-04-08T07:20:13.494Z,1006.96
2023-04-08T07:21:13.404Z,1006.94
2023-04-08T07:22:13.323Z,1006.91
2023-04-08T07:23:13.617Z,1006.92
2023-04-08T07:24:13.483Z,1006.89
2023-04-08T07:25:13.507Z,1006.94
2023-04-08T07:26:13.329Z,1006.97
2023-04-08T07:27:13.669Z,1006.95
2023-04-08T07:28:13.725Z,1007.02
2023-04-08T07:29:13.618Z,1007.05
2023-04-08T07:30:14.099Z,1007.03
2023-04-08T07:31:13.283Z,1007.06
2023-04-08T07:32:13.415Z,1007.08
2023-04-08T07:33:13.830Z,1007.09
2023-04-08T07:34:13.881Z,1007.11
2023-04-08T07:35:12.805Z,1007.18
2023-04-08T07:36:13.881Z,1007.13
2023-04-08T07:37:12.782Z,1007.15
2023-04-08T07:38:13.692Z,1007.16
2023-04-08T07:39:13.580Z,1007.15
2023-04-08T07:40:14.425Z,1007.08
2023-04-08T07:41:13.670Z,1007.07
2023-04-08T07:42:13.494Z,1007.07
2023-04-08T07:43:13.707Z,1007.08
2023-04-08T07:44:13.714Z,1007.05
2023-04-08T07:45:13.682Z,1007.06
2023-04-08T07:46:13.818Z,1007.11
2023-04-08T07:47:13.748Z,1007.07
2023-04-08T07:48:13.647Z,1007.07
2023-04-08T07:49:13.868Z,1007.07
2023-04-08T07:50:13.802Z,1007.14
2023-04-08T07:51:13.659Z,1007.14
2023-04-08T07:52:13.898Z,1007.17
2023-04-08T07:53:13.103Z,1007.18
2023-04-08T07:54:14.418Z,1007.24
2023-04-08T07:55:13.367Z,1007.22
2023-04-08T07:56:13.765Z,1007.26
2023-04-08T07:57:12.817Z,1007.26
2023-04-08T07:58:13.134Z,1007.26
2023-04-08T07:59:13.060Z,1007.25
2023-04-08T08:00:12.963Z,1007.27
2023-04-08T08:01:13.295Z,1007.27
2023-04-08T08:02:13.671Z,1007.31
2023-04-08T08:03:18.909Z,1007.30
2023-04-08T08:04:13.630Z,1007.26
2023-04-08T08:05:13.844Z,1007.33
2023-04-08T08:06:13.806Z,1007.31
2023-04-08T08:07:14.018Z,1007.35
2023-04-08T08:08:13.161Z,1007.38
2023-04-08T08:09:13.524Z,1007.44
2023-04-08T08:10:13.672Z,1007.42
2023-04-08T08:11:13.588Z,1007.44
2023-04-08T08:12:13.453Z,1007.39
2023-04-08T08:13:13.694Z,1007.43
2023-04-08T08:14:13.732Z,1007.41
2023-04-08T08:15:13.602Z,1007.47
2023-04-08T08:16:13.677Z,1007.43
2023-04-08T08:17:13.629Z,1007.44
2023-04-08T08:18:14.747Z,1007.45
2023-04-08T08:19:14.048Z,1007.41
2023-04-08T08:20:13.002Z,1007.41
2023-04-08T08:21:13.286Z,1007.45
2023-04-08T08:22:14.011Z,1007.49
2023-04-08T08:23:13.361Z,1007.44
2023-04-08T08:24:13.622Z,1007.47
2023-04-08T08:25:13.762Z,1007.45
2023-04-08T08:26:13.928Z,1007.44
2023-04-08T08:27:13.046Z,1007.52
2023-04-08T08:28:13.016Z,1007.48
2023-04-08T08:29:13.097Z,1007.51
2023-04-08T08:30:12.940Z,1007.53
2023-04-08T08:31:12.888Z,1007.55
2023-04-08T08:32:12.912Z,1007.59
2023-04-08T08:33:13.834Z,1007.65
2023-04-08T08:34:18.639Z,1007.66
2023-04-08T08:35:13.660Z,1007.63
2023-04-08T08:36:13.854Z,1007.66
2023-04-08T08:37:18.113Z,1007.69
2023-04-08T08:38:13.375Z,1007.67
2023-04-08T08:39:13.626Z,1007.74
2023-04-08T08:40:13.619Z,1007.68
2023-04-08T08:41:13.689Z,1007.73
2023-04-08T08:42:13.586Z,1007.74
2023-04-08T08:43:13.523Z,1007.76
2023-04-08T08:44:13.515Z,1007.79
2023-04-08T08:45:13.494Z,1007.84
2023-04-08T08:46:13.476Z,1007.82
2023-04-08T08:47:13.368Z,1007.86
2023-04-08T08:48:13.453Z,1007.86
2023-04-08T08:49:13.563Z,1007.81
2023-04-08T08:50:13.482Z,1007.81
2023-04-08T08:51:13.509Z,1007.85
2023-04-08T08:52:13.524Z,1007.84
2023-04-08T08:53:14.308Z,1007.86
2023-04-08T08:54:13.498Z,1007.81
2023-04-08T08:55:35.024Z,1007.84
2023-04-08T08:56:18.307Z,1007.86
2023-04-08T08:57:12.931Z,1007.84
2023-04-08T08:58:12.735Z,1007.81
2023-04-08T08:59:13.717Z,1007.85
2023-04-08T09:00:13.907Z,1007.85
2023-04-08T09:01:13.085Z,1007.85
2023-04-08T09:02:13.354Z,1007.84
2023-04-08T09:03:13.613Z,1007.83
2023-04-08T09:04:18.537Z,1007.86
2023-04-08T09:05:13.951Z,1007.83
2023-04-08T09:06:12.956Z,1007.87
2023-04-08T09:07:12.890Z,1007.82
2023-04-08T09:08:13.873Z,1007.79
2023-04-08T09:09:12.841Z,1007.79
2023-04-08T09:10:13.950Z,1007.80
2023-04-08T09:11:13.025Z,1007.80
2023-04-08T09:12:13.113Z,1007.80
2023-04-08T09:13:13.026Z,1007.85
2023-04-08T09:14:13.143Z,1007.83
2023-04-08T09:15:13.252Z,1007.85
2023-04-08T09:16:13.629Z,1007.84
2023-04-08T09:17:13.530Z,1007.84
2023-04-08T09:18:13.535Z,1007.87
2023-04-08T09:19:13.434Z,1007.86
2023-04-08T09:20:13.613Z,1007.83
2023-04-08T09:21:13.665Z,1007.85
2023-04-08T09:22:13.576Z,1007.84
2023-04-08T09:23:13.444Z,1007.89
2023-04-08T09:24:13.420Z,1007.91
2023-04-08T09:25:13.671Z,1007.86
2023-04-08T09:26:13.902Z,1007.88
2023-04-08T09:27:12.869Z,1007.91
2023-04-08T09:28:13.738Z,1007.89
2023-04-08T09:29:25.460Z,1007.88
2023-04-08T09:30:13.318Z,1007.87
2023-04-08T09:31:13.379Z,1007.91
2023-04-08T09:32:13.352Z,1007.92
2023-04-08T09:33:13.317Z,1007.93
2023-04-08T09:34:13.285Z,1007.91
2023-04-08T09:35:13.387Z,1007.93
2023-04-08T09:36:13.655Z,1007.92
2023-04-08T09:37:13.528Z,1007.96
2023-04-08T09:38:13.779Z,1007.96
2023-04-08T09:39:13.699Z,1007.97
2023-04-08T09:40:14.206Z,1008.00
2023-04-08T09:41:13.161Z,1007.95
2023-04-08T09:42:13.608Z,1007.98
2023-04-08T09:43:13.500Z,1007.99
2023-04-08T09:44:13.698Z,1007.98
2023-04-08T09:45:13.925Z,1007.99
2023-04-08T09:46:13.265Z,1008.02
2023-04-08T09:47:13.239Z,1008.04
2023-04-08T09:48:14.425Z,1008.04
2023-04-08T09:49:13.192Z,1008.04
2023-04-08T09:50:13.011Z,1008.05
2023-04-08T09:51:13.275Z,1008.03
2023-04-08T09:52:13.149Z,1008.05
2023-04-08T09:53:13.367Z,1008.03
2023-04-08T09:54:13.197Z,1008.05
2023-04-08T09:55:13.111Z,1008.06
2023-04-08T09:56:13.382Z,1008.07
2023-04-08T09:57:13.288Z,1008.06
2023-04-08T09:58:13.227Z,1008.08
2023-04-08T09:59:13.468Z,1008.13
2023-04-08T10:00:13.489Z,1008.07
2023-04-08T10:01:13.572Z,1008.14
2023-04-08T10:02:13.608Z,1008.11
2023-04-08T10:03:14.005Z,1008.11
2023-04-08T10:04:13.472Z,1008.13
2023-04-08T10:05:14.071Z,1008.10
2023-04-08T10:06:48.349Z,1008.08
2023-04-08T10:07:13.408Z,1008.07
2023-04-08T10:08:13.612Z,1008.07
2023-04-08T10:09:18.576Z,1008.08
2023-04-08T10:10:23.713Z,1008.11
2023-04-08T10:11:13.656Z,1008.09
2023-04-08T10:12:13.505Z,1008.10
2023-04-08T10:13:13.910Z,1008.08
2023-04-08T10:14:13.057Z,1008.12
2023-04-08T10:15:13.221Z,1008.09
2023-04-08T10:16:13.223Z,1008.09
2023-04-08T10:17:13.577Z,1008.12
2023-04-08T10:18:13.472Z,1008.10
2023-04-08T10:19:13.444Z,1008.09
2023-04-08T10:20:13.300Z,1008.05
2023-04-08T10:21:13.525Z,1008.12
2023-04-08T10:22:13.453Z,1008.12
2023-04-08T10:23:13.484Z,1008.13
2023-04-08T10:24:13.505Z,1008.10
2023-04-08T10:25:13.457Z,1008.15
2023-04-08T10:26:13.384Z,1008.16
2023-04-08T10:27:13.613Z,1008.17
2023-04-08T10:28:13.716Z,1008.11
2023-04-08T10:29:13.791Z,1008.17
2023-04-08T10:30:13.736Z,1008.17
2023-04-08T10:31:18.822Z,1008.19
2023-04-08T10:32:13.956Z,1008.20
2023-04-08T10:33:14.444Z,1008.21
2023-04-08T10:34:13.341Z,1008.22
2023-04-08T10:35:13.472Z,1008.17
2023-04-08T10:36:13.857Z,1008.19
2023-04-08T10:37:14.018Z,1008.16
2023-04-08T10:38:13.332Z,1008.16
2023-04-08T10:39:13.287Z,1008.14
2023-04-08T10:40:13.207Z,1008.17
2023-04-08T10:41:13.186Z,1008.24
2023-04-08T10:42:13.247Z,1008.16
2023-04-08T10:43:13.216Z,1008.19
2023-04-08T10:44:13.176Z,1008.19
2023-04-08T10:46:13.415Z,1008.08
2023-04-08T10:47:13.352Z,1008.11
2023-04-08T10:48:13.662Z,1008.05
2023-04-08T10:49:13.586Z,1008.12
2023-04-08T10:50:14.832Z,1008.14
2023-04-08T10:51:13.880Z,1008.13
2023-04-08T10:52:12.881Z,1008.10
2023-04-08T10:53:13.846Z,1008.06
2023-04-08T10:54:13.749Z,1008.11
2023-04-08T10:55:14.421Z,1008.09
2023-04-08T10:56:14.426Z,1008.05
2023-04-08T10:57:13.395Z,1008.02
2023-04-08T10:58:13.413Z,1008.00
2023-04-08T10:59:13.244Z,1008.00
2023-04-08T11:00:13.281Z,1008.01
2023-04-08T11:01:13.193Z,1007.94
2023-04-08T11:02:13.544Z,1007.99
2023-04-08T11:03:15.798Z,1008.03
2023-04-08T11:04:13.005Z,1007.99
2023-04-08T11:05:12.901Z,1007.94
2023-04-08T11:06:13.209Z,1007.98
2023-04-08T11:07:13.299Z,1008.01
2023-04-08T11:08:14.089Z,1008.04
2023-04-08T11:09:12.999Z,1008.03
2023-04-08T11:10:13.102Z,1008.00
2023-04-08T11:11:12.978Z,1008.00
2023-04-08T11:12:12.899Z,1008.04
2023-04-08T11:13:12.994Z,1008.05
2023-04-08T11:14:13.050Z,1008.00
2023-04-08T11:15:13.154Z,1007.99
2023-04-08T11:16:18.126Z,1008.03
2023-04-08T11:17:13.323Z,1008.02
2023-04-08T11:18:13.350Z,1008.07
2023-04-08T11:19:13.649Z,1008.07
2023-04-08T11:20:13.617Z,1008.05
2023-04-08T11:21:13.849Z,1008.05
2023-04-08T11:22:14.209Z,1008.04
2023-04-08T11:23:13.391Z,1008.03
2023-04-08T11:24:13.660Z,1008.05
2023-04-08T11:25:13.782Z,1007.99
2023-04-08T11:26:13.778Z,1007.99
2023-04-08T11:27:13.683Z,1008.02
2023-04-08T11:28:13.741Z,1008.04
2023-04-08T11:29:13.803Z,1008.03
2023-04-08T11:30:13.831Z,1008.02
2023-04-08T11:31:12.882Z,1007.95
2023-04-08T11:32:12.842Z,1008.00
2023-04-08T11:33:13.939Z,1008.05
2023-04-08T11:34:12.976Z,1008.05
2023-04-08T11:35:12.819Z,1008.01
2023-04-08T11:36:14.155Z,1007.98
2023-04-08T11:37:13.085Z,1008.02
2023-04-08T11:38:13.360Z,1008.03
2023-04-08T11:39:13.745Z,1008.05
2023-04-08T11:40:13.804Z,1007.99
2023-04-08T11:41:13.785Z,1008.04
2023-04-08T11:42:13.700Z,1008.06
2023-04-08T11:43:13.925Z,1007.99
2023-04-08T11:44:12.840Z,1007.98
2023-04-08T11:45:13.882Z,1008.00
2023-04-08T11:46:13.137Z,1008.04
2023-04-08T11:47:13.046Z,1008.04
2023-04-08T11:48:13.332Z,1008.04
2023-04-08T11:49:13.517Z,1008.04
2023-04-08T11:50:13.590Z,1008.04
2023-04-08T11:51:13.523Z,1008.07
2023-04-08T11:52:13.588Z,1008.04
2023-04-08T11:53:13.783Z,1008.03
2023-04-08T11:54:13.743Z,1008.04
2023-04-08T11:55:14.985Z,1008.03
2023-04-08T11:56:13.174Z,1008.02
2023-04-08T11:57:13.244Z,1008.03
2023-04-08T11:58:13.198Z,1008.03
2023-04-08T11:59:13.196Z,1008.05
2023-04-08T12:00:13.149Z,1008.08
2023-04-08T12:01:12.959Z,1008.03
2023-04-08T12:02:12.953Z,1007.97
2023-04-08T12:03:18.328Z,1007.98
2023-04-08T12:04:13.732Z,1007.95
2023-04-08T12:05:13.764Z,1007.96
2023-04-08T12:06:14.188Z,1007.98
2023-04-08T12:07:13.522Z,1007.95